createdAt,value
2018-02-05T00:03:00.397Z,1.87
2018-02-05T00:13:00.417Z,1.72
2018-02-05T00:23:00.486Z,1.79
2018-02-05T00:33:00.437Z,1.73
2018-02-05T00:43:00.481Z,1.65
2018-02-05T00:53:00.460Z,1.65
2018-02-05T01:03:00.490Z,1.58
2018-02-05T01:13:00.486Z,1.19
2018-02-05T01:23:00.586Z,0.9
2018-02-05T01:33:00.552Z,0.75
2018-02-05T01:43:00.458Z,0.78
2018-02-05T01:53:00.539Z,0.43
2018-02-05T02:03:00.489Z,0.58
2018-02-05T02:13:00.523Z,0.65
2018-02-05T02:23:00.515Z,0.83
2018-02-05T02:33:00.553Z,0.82
2018-02-05T02:43:00.500Z,0.75
2018-02-05T02:53:00.564Z,0.28
2018-02-05T03:03:00.589Z,0.05
2018-02-05T03:13:00.519Z,0.09
2018-02-05T03:23:00.539Z,0.27
2018-02-05T03:33:00.542Z,0.27
2018-02-05T03:43:00.624Z,0.34
2018-02-05T03:53:00.561Z,0.8
2018-02-05T04:03:00.637Z,1.06
2018-02-05T04:13:00.576Z,1.39
2018-02-05T04:23:00.631Z,1.44
2018-02-05T04:33:00.574Z,1.58
2018-02-05T04:43:00.691Z,1.65
2018-02-05T04:53:00.629Z,1.61
2018-02-05T05:03:00.594Z,1.72
2018-02-05T05:13:00.661Z,1.73
2018-02-05T05:23:00.627Z,1.75
2018-02-05T05:33:00.667Z,1.75
2018-02-05T05:43:01.848Z,1.89
2018-02-05T05:53:00.689Z,1.78
2018-02-05T06:03:00.662Z,1.87
2018-02-05T06:13:00.707Z,1.82
2018-02-05T06:23:00.668Z,1.94
2018-02-05T06:33:00.654Z,1.98
2018-02-05T06:43:00.648Z,2.02
2018-02-05T06:53:00.652Z,2.15
2018-02-05T07:03:00.763Z,2.1
2018-02-05T07:13:00.737Z,2.17
2018-02-05T07:23:00.748Z,2.22
2018-02-05T07:33:00.719Z,2.27
2018-02-05T07:43:01.082Z,2.28
2018-02-05T07:53:00.753Z,2.35
2018-02-05T08:03:00.811Z,2.34
2018-02-05T08:13:00.751Z,2.35
2018-02-05T08:23:00.713Z,2.3
2018-02-05T08:33:00.782Z,2.52
2018-02-05T08:43:00.769Z,2.59
2018-02-05T08:53:00.854Z,2.73
2018-02-05T09:03:00.852Z,3.36
2018-02-05T09:13:00.870Z,3.18
2018-02-05T09:23:00.863Z,3.2
2018-02-05T09:33:00.887Z,3.18
2018-02-05T09:43:00.827Z,3.4
2018-02-05T09:53:00.915Z,3.52
2018-02-05T10:03:00.835Z,3.62
2018-02-05T10:13:00.961Z,3.46
2018-02-05T10:23:00.882Z,3.36
2018-02-05T10:33:00.849Z,3.15
2018-02-05T10:43:00.992Z,3.25
2018-02-05T10:53:00.858Z,3.34
2018-02-05T11:03:00.923Z,3.67
2018-02-05T11:13:00.854Z,3.9
2018-02-05T11:23:00.976Z,3.6
2018-02-05T11:33:00.875Z,3.67
2018-02-05T11:43:00.983Z,3.92
2018-02-05T11:53:00.901Z,3.8
2018-02-05T12:03:01.085Z,3.98
2018-02-05T12:13:00.926Z,3.98
2018-02-05T12:23:01.390Z,3.85
2018-02-05T12:33:00.984Z,4
2018-02-05T12:43:00.984Z,4.01
2018-02-05T12:53:01.000Z,4.28
2018-02-05T13:03:01.012Z,4.06
2018-02-05T13:13:01.079Z,4
2018-02-05T13:23:01.101Z,3.89
2018-02-05T13:33:01.076Z,3.68
2018-02-05T13:43:01.262Z,3.85
2018-02-05T13:53:01.028Z,3.8
2018-02-05T14:03:01.042Z,3.82
2018-02-05T14:13:01.070Z,3.82
2018-02-05T14:23:01.022Z,3.86
2018-02-05T14:33:01.112Z,3.78
2018-02-05T14:43:01.131Z,3.31
2018-02-05T14:53:01.120Z,3.39
2018-02-05T15:03:01.060Z,3.27
2018-02-05T15:13:01.160Z,3.27
2018-02-05T15:23:01.168Z,3.33
2018-02-05T15:33:01.153Z,3.24
2018-02-05T15:43:01.120Z,3.13
2018-02-05T15:53:01.153Z,3.02
2018-02-05T16:03:01.420Z,2.71
2018-02-05T16:13:03.537Z,2.67
2018-02-05T16:23:01.213Z,2.52
2018-02-05T16:33:01.133Z,2.37
2018-02-05T16:43:01.147Z,2.52
2018-02-05T16:53:03.133Z,2.63
2018-02-05T17:03:01.421Z,2.35
2018-02-05T17:13:01.227Z,1.78
2018-02-05T17:23:02.153Z,1.42
2018-02-05T17:33:01.504Z,1.21
2018-02-05T17:43:01.580Z,0.85
2018-02-05T17:53:01.203Z,0.98
2018-02-05T18:03:01.270Z,1.12
2018-02-05T18:13:01.574Z,1.06
2018-02-05T18:23:01.302Z,1
2018-02-05T18:33:01.240Z,0.79
2018-02-05T18:43:01.908Z,0.83
2018-02-05T18:53:01.270Z,0.68
2018-02-05T19:03:01.382Z,0.71
2018-02-05T19:13:01.319Z,0.67
2018-02-05T19:23:01.360Z,0.82
2018-02-05T19:33:01.318Z,0.8
2018-02-05T19:43:01.291Z,0.64
2018-02-05T19:53:01.696Z,0.39
2018-02-05T20:03:01.335Z,0.12
2018-02-05T20:13:01.367Z,-0.09
2018-02-05T20:23:01.387Z,-0.13
2018-02-05T20:33:01.345Z,-0.37
2018-02-05T20:43:01.528Z,-0.52
2018-02-05T20:53:01.310Z,-0.6
2018-02-05T21:03:01.622Z,-0.6
2018-02-05T21:13:02.479Z,-0.78
2018-02-05T21:23:01.518Z,-0.75
2018-02-05T21:33:01.342Z,-0.87
2018-02-05T21:43:01.453Z,-0.87
2018-02-05T21:53:01.395Z,-0.95
2018-02-05T22:03:01.478Z,-1
2018-02-05T22:13:01.419Z,-1.02
2018-02-05T22:23:01.396Z,-1.09
2018-02-05T22:33:01.431Z,-1.3
2018-02-05T22:43:01.462Z,-1.38
2018-02-05T22:53:01.447Z,-1.42
2018-02-05T23:03:01.489Z,-1.33
2018-02-05T23:13:01.431Z,-1.39
2018-02-05T23:23:01.756Z,-1.39
2018-02-05T23:33:01.567Z,-1.56
2018-02-05T23:43:01.503Z,-1.63
2018-02-05T23:53:01.587Z,-1.59
